Home > Products > Valid Products > TAF

000
FTUS41 KOKX 292329
TAFBDR
TAF
KBDR 292329Z 3000/3024 20007KT P6SM FEW050 SCT250
     FM300100 23005KT P6SM FEW050 SCT250
     FM301400 23008KT P6SM SCT050 BKN100
     FM302000 21009KT P6SM BKN050 BKN100=



000
FTUS41 KOKX 292329
TAFSWF
TAF
KSWF 292329Z 3000/3106 VRB03KT P6SM FEW050 SCT250
     FM301500 26007KT P6SM BKN050 BKN100
     FM301800 27010KT P6SM BKN050 BKN100
     FM310000 25005KT P6SM BKN050 BKN100
      AMD NOT SKED=



000
FTUS41 KOKX 292329
TAFJFK
TAF
KJFK 292329Z 3000/3106 18013KT P6SM FEW050 SCT250
     FM300100 20010KT P6SM FEW050 SCT250
     FM300300 24008KT P6SM FEW050 SCT100
     FM301700 19013KT P6SM SCT050 BKN100
     FM302000 19017KT P6SM BKN050 BKN100
     FM310100 20011KT P6SM BKN050 BKN100
     FM310400 21008KT P6SM BKN050 BKN100=



000
FTUS41 KOKX 292329
TAFISP
TAF
KISP 292329Z 3000/3024 20009KT P6SM FEW050 SCT250
     FM300100 22007KT P6SM FEW050 SCT250
     FM300300 24005KT P6SM FEW050 SCT100
     FM301700 21010KT P6SM SCT050 BKN100
     FM302000 20010KT P6SM BKN050 BKN100=



000
FTUS41 KOKX 292329
TAFTEB
TAF
KTEB 292329Z 3000/3024 18008KT P6SM FEW050 SCT250
     FM300300 21005KT P6SM FEW050 SCT250
     FM301200 25004KT P6SM FEW050 SCT100
     FM301800 21009KT P6SM BKN050 BKN100=



000
FTUS41 KOKX 292329
TAFLGA
TAF
KLGA 292329Z 3000/3024 18012KT P6SM FEW050 SCT250
     FM300300 24008KT P6SM FEW050 SCT100
     FM301200 25006KT P6SM FEW050 SCT100
     FM301800 19010KT P6SM SCT050 BKN100
     FM302000 19015KT P6SM BKN050 BKN100=



000
FTUS41 KOKX 292329
TAFEWR
TAF
KEWR 292329Z 3000/3106 17010KT P6SM FEW050 SCT250
     FM300200 21007KT P6SM FEW050 SCT250
     FM300400 25005KT P6SM FEW050 SCT100
     FM301800 21011KT P6SM BKN050 BKN100
     FM310100 24007KT P6SM BKN050 BKN100=



000
FTUS41 KOKX 292329
TAFGON
TAF
KGON 292329Z 3000/3024 21006KT P6SM FEW050 SCT250
     FM300100 23005KT P6SM FEW050 SCT250
     FM301400 23008KT P6SM SCT050 BKN100
     FM302000 23009KT P6SM BKN050 BKN100=



000
FTUS41 KOKX 291958 AAA
TAFBDR
TAF AMD
KBDR 291958Z 2920/3018 21011KT P6SM SCT050 SCT250
     FM300100 VRB05KT P6SM FEW100 SCT250
     FM301400 23008KT P6SM SCT050 BKN100=



000
FTUS41 KOKX 291958 AAA
TAFSWF
TAF AMD
KSWF 291958Z 2920/3024 25010KT P6SM SCT050 SCT250
     FM300100 VRB03KT P6SM FEW100 SCT200
     FM301500 27007KT P6SM BKN050 BKN100
      AMD NOT SKED=



000
FTUS41 KOKX 291958 AAA
TAFTEB
TAF AMD
KTEB 291958Z 2920/3018 17008KT P6SM SCT050 SCT250
     FM300300 VRB03KT P6SM FEW050 SCT250
     FM301400 24007KT P6SM SCT050 BKN100=



000
FTUS41 KOKX 291958 AAB
TAFLGA
TAF AMD
KLGA 291958Z 2920/3018 18010KT P6SM SCT050 SCT250
     FM300300 24007KT P6SM FEW050 SCT250=



000
FTUS41 KOKX 291958 AAB
TAFEWR
TAF AMD
KEWR 291958Z 2920/3024 16011KT P6SM SCT050 SCT250
     FM300300 24006KT P6SM FEW050 SCT100
     FM301900 21011KT P6SM SCT050 BKN100=



000
FTUS41 KOKX 291958 AAA
TAFJFK
TAF AMD
KJFK 291958Z 2920/3024 18014KT P6SM SCT050 SCT250
     FM300100 20010KT P6SM FEW050 SCT250
     FM300300 24008KT P6SM FEW050 SCT100
     FM301700 19013KT P6SM SCT050 BKN100
     FM302000 19017KT P6SM BKN050 BKN100=



000
FTUS41 KOKX 291958 AAA
TAFGON
TAF AMD
KGON 291958Z 2920/3018 22011KT P6SM FEW050 SCT250
     FM300100 VRB04KT P6SM SCT100 BKN250
     FM301400 24009KT P6SM SCT050 BKN100=



000
FTUS41 KOKX 291958 AAA
TAFISP
TAF AMD
KISP 291958Z 2920/3018 20010KT P6SM SCT050 SCT250
     FM300400 24006KT P6SM FEW100 SCT250
     FM301700 21010KT P6SM SCT050 BKN100=



000
FTUS41 KOKX 291958 AAA
TAFSWF
TAF AMD
KSWF 291958Z 2920/3024 25010KT P6SM SCT050 SCT250
     FM300100 VRB03KT P6SM FEW100 SCT200
     FM301500 27007KT P6SM BKN050 BKN100
      AMD NOT SKED=



000
FTUS41 KOKX 291958 AAA
TAFBDR
TAF AMD
KBDR 291958Z 2920/3018 21011KT P6SM SCT050 SCT250
     FM300100 VRB05KT P6SM FEW100 SCT250
     FM301400 23008KT P6SM SCT050 BKN100=



000
FTUS41 KOKX 291831 AAA
TAFLGA
TAF AMD
KLGA 291831Z 2919/3018 23007KT P6SM SCT050 SCT250
     FM291930 18010KT P6SM SCT050 SCT250
     FM300300 24007KT P6SM FEW050 SCT250=



000
FTUS41 KOKX 291831 AAA
TAFEWR
TAF AMD
KEWR 291831Z 2919/3024 16010KT P6SM SCT050 SCT250
     FM300300 24006KT P6SM FEW050 SCT250=



000
FTUS41 KOKX 291831 AAA
TAFEWR
TAF AMD
KEWR 291831Z 2919/3024 16010KT P6SM SCT050 SCT250
     FM300300 24006KT P6SM FEW050 SCT250=



000
FTUS41 KOKX 291831 AAA
TAFLGA
TAF AMD
KLGA 291831Z 2919/3018 23007KT P6SM SCT050 SCT250
     FM291930 18010KT P6SM SCT050 SCT250
     FM300300 24007KT P6SM FEW050 SCT250=



000
FTUS41 KOKX 291737
TAFSWF
TAF
KSWF 291737Z 2918/3024 25010KT P6SM SCT050 SCT250
     FM300100 VRB03KT P6SM FEW050 SCT200
     FM301500 27007KT P6SM SCT050 SCT150
      AMD NOT SKED=



000
FTUS41 KOKX 291737
TAFEWR
TAF
KEWR 291737Z 2918/3024 24007KT P6SM SCT050 SCT250
     FM292000 16010KT P6SM SCT050 SCT250
     FM300300 24006KT P6SM FEW050 SCT250=



000
FTUS41 KOKX 291737
TAFLGA
TAF
KLGA 291737Z 2918/3018 25007KT P6SM SCT050 SCT250
     FM291930 18010KT P6SM SCT050 SCT250
     FM300300 24007KT P6SM FEW050 SCT250=



000
FTUS41 KOKX 291737
TAFISP
TAF
KISP 291737Z 2918/3018 20010KT P6SM SCT050 SCT250
     FM300400 24006KT P6SM FEW050 SCT250
     FM301700 21010KT P6SM SCT050 SCT250=



000
FTUS41 KOKX 291737
TAFBDR
TAF
KBDR 291737Z 2918/3018 21011KT P6SM SCT050 SCT250
     FM300100 VRB05KT P6SM FEW050 SCT250
     FM301400 23008KT P6SM SCT050 SCT250=



000
FTUS41 KOKX 291737
TAFJFK
TAF
KJFK 291737Z 2918/3024 18014KT P6SM SCT050 SCT250
     FM300100 20010KT P6SM FEW050 SCT250
     FM300300 24008KT P6SM FEW050 SCT250
     FM301700 19013KT P6SM SCT050 SCT200
     FM302000 19017KT P6SM SCT050 SCT200=



000
FTUS41 KOKX 291737
TAFTEB
TAF
KTEB 291737Z 2918/3018 25006KT P6SM SCT060 SCT250
     FM292100 17008KT P6SM SCT050 SCT250
     FM300300 VRB03KT P6SM FEW050 SCT250
     FM301400 24007KT P6SM SCT050 SCT250=



000
FTUS41 KOKX 291737
TAFGON
TAF
KGON 291737Z 2918/3018 22011KT P6SM FEW050 SCT250
     FM300100 VRB04KT P6SM SCT250
     FM301400 24009KT P6SM FEW050 SCT250=



000
FTUS41 KOKX 291737
TAFSWF
TAF
KSWF 291737Z 2918/3024 25010KT P6SM SCT050 SCT250
     FM300100 VRB03KT P6SM FEW050 SCT200
     FM301500 27007KT P6SM SCT050 SCT150
      AMD NOT SKED=



000
FTUS41 KOKX 291737
TAFEWR
TAF
KEWR 291737Z 2918/3024 24007KT P6SM SCT050 SCT250
     FM292000 16010KT P6SM SCT050 SCT250
     FM300300 24006KT P6SM FEW050 SCT250=



000
FTUS41 KOKX 291737
TAFLGA
TAF
KLGA 291737Z 2918/3018 25007KT P6SM SCT050 SCT250
     FM291930 18010KT P6SM SCT050 SCT250
     FM300300 24007KT P6SM FEW050 SCT250=



000
FTUS41 KOKX 291737
TAFJFK
TAF
KJFK 291737Z 2918/3024 18014KT P6SM SCT050 SCT250
     FM300100 20010KT P6SM FEW050 SCT250
     FM300300 24008KT P6SM FEW050 SCT250
     FM301700 19013KT P6SM SCT050 SCT200
     FM302000 19017KT P6SM SCT050 SCT200=



000
FTUS41 KOKX 291737
TAFTEB
TAF
KTEB 291737Z 2918/3018 25006KT P6SM SCT060 SCT250
     FM292100 17008KT P6SM SCT050 SCT250
     FM300300 VRB03KT P6SM FEW050 SCT250
     FM301400 24007KT P6SM SCT050 SCT250=



000
FTUS41 KOKX 291737
TAFGON
TAF
KGON 291737Z 2918/3018 22011KT P6SM FEW050 SCT250
     FM300100 VRB04KT P6SM SCT250
     FM301400 24009KT P6SM FEW050 SCT250=



000
FTUS41 KOKX 291737
TAFISP
TAF
KISP 291737Z 2918/3018 20010KT P6SM SCT050 SCT250
     FM300400 24006KT P6SM FEW050 SCT250
     FM301700 21010KT P6SM SCT050 SCT250=



000
FTUS41 KOKX 291737
TAFBDR
TAF
KBDR 291737Z 2918/3018 21011KT P6SM SCT050 SCT250
     FM300100 VRB05KT P6SM FEW050 SCT250
     FM301400 23008KT P6SM SCT050 SCT250=



000
FTUS41 KOKX 291440 AAA
TAFLGA
TAF AMD
KLGA 291440Z 2915/3012 26007KT P6SM FEW050 SCT250
     FM291800 18010KT P6SM SCT050 SCT250
     FM300300 22007KT P6SM SCT250
     FM300900 26006KT P6SM SCT250=



000
FTUS41 KOKX 291440 AAA
TAFSWF
TAF AMD
KSWF 291440Z 2915/3018 26007KT P6SM FEW050 SCT250
     FM300100 VRB03KT P6SM FEW050 SCT200
     FM301400 27005KT P6SM SCT050 SCT150
      AMD NOT SKED=



000
FTUS41 KOKX 291440 AAA
TAFJFK
TAF AMD
KJFK 291440Z 2915/3018 24007KT P6SM SCT250
     FM291600 18012KT P6SM SCT050 SCT250
     FM300300 22008KT P6SM SCT250
     FM300900 25006KT P6SM SCT250
     FM301500 23009KT P6SM FEW050 SCT200=



000
FTUS41 KOKX 291440 AAA
TAFGON
TAF AMD
KGON 291440Z 2915/3012 20009KT P6SM FEW050 SCT250
     FM300200 VRB04KT P6SM SCT250=



000
FTUS41 KOKX 291440 AAA
TAFISP
TAF AMD
KISP 291440Z 2915/3012 24006KT P6SM FEW050 SCT250
     FM291800 20009KT P6SM SCT050 SCT250
     FM300300 22006KT P6SM SCT250
     FM300600 VRB04KT P6SM SCT250=



000
FTUS41 KOKX 291440 AAA
TAFTEB
TAF AMD
KTEB 291440Z 2915/3012 26006KT P6SM SCT250
     FM292100 17008KT P6SM SCT050 SCT250
     FM300300 VRB04KT P6SM SCT250=



000
FTUS41 KOKX 291440 AAA
TAFEWR
TAF AMD
KEWR 291440Z 2915/3018 25006KT P6SM FEW050 SCT250
     FM292100 16009KT P6SM SCT050 SCT250
     FM300300 23006KT P6SM SCT250
     FM301200 26007KT P6SM SCT200=



000
FTUS41 KOKX 291440 AAA
TAFBDR
TAF AMD
KBDR 291440Z 2915/3012 21009KT P6SM FEW050 SCT250
     FM300300 VRB04KT P6SM SCT250=



000
FTUS41 KOKX 291121
TAFTEB
TAF
KTEB 291121Z 2912/3012 VRB03KT P6SM FEW250
     FM291500 26006KT P6SM FEW250
     FM292100 17008KT P6SM SCT050 SCT250
     FM300300 VRB04KT P6SM SCT250=



000
FTUS41 KOKX 291121
TAFLGA
TAF
KLGA 291121Z 2912/3012 34004KT P6SM FEW250
     FM291500 26007KT P6SM FEW050 SCT250
     FM291800 18010KT P6SM SCT050 SCT250
     FM300300 22007KT P6SM SCT250
     FM300900 26006KT P6SM SCT250=



000
FTUS41 KOKX 291121
TAFEWR
TAF
KEWR 291121Z 2912/3018 35004KT P6SM FEW250
     FM291500 25006KT P6SM FEW050 SCT250
     FM292100 16009KT P6SM SCT050 SCT250
     FM300300 23006KT P6SM SCT250
     FM301200 26007KT P6SM SCT200=



000
FTUS41 KOKX 291121
TAFISP
TAF
KISP 291121Z 2912/3012 32004KT P6SM FEW250
     FM291500 24006KT P6SM SCT250
     FM291800 20009KT P6SM FEW050 SCT250
     FM300300 22006KT P6SM SCT250
     FM300600 VRB04KT P6SM SCT250=



000
FTUS41 KOKX 291121
TAFSWF
TAF
KSWF 291121Z 2912/3018 VRB03KT P6SM FEW250
     FM291500 26007KT P6SM FEW050 SCT250
     FM300100 VRB03KT P6SM FEW050 SCT200
     FM301400 27005KT P6SM SCT050 SCT150
      AMD NOT SKED=



000
FTUS41 KOKX 291121
TAFGON
TAF
KGON 291121Z 2912/3012 24005KT P6SM SKC
     FM291500 20009KT P6SM FEW050 SCT250
     FM300200 VRB04KT P6SM SCT250=



000
FTUS41 KOKX 291121
TAFBDR
TAF
KBDR 291121Z 2912/3012 VRB03KT P6SM FEW250
     FM291400 25005KT P6SM FEW250
     FM291600 20009KT P6SM FEW050 SCT250
     FM300300 VRB04KT P6SM SCT250=



000
FTUS41 KOKX 291121
TAFJFK
TAF
KJFK 291121Z 2912/3018 28005KT P6SM FEW250
     FM291600 18012KT P6SM SCT050 SCT250
     FM300300 22008KT P6SM SCT250
     FM300900 25006KT P6SM SCT250
     FM301500 23009KT P6SM FEW050 SCT200=



000
FTUS41 KOKX 291121
TAFLGA
TAF
KLGA 291121Z 2912/3012 34004KT P6SM FEW250
     FM291500 26007KT P6SM FEW050 SCT250
     FM291800 18010KT P6SM SCT050 SCT250
     FM300300 22007KT P6SM SCT250
     FM300900 26006KT P6SM SCT250=



000
FTUS41 KOKX 291121
TAFTEB
TAF
KTEB 291121Z 2912/3012 VRB03KT P6SM FEW250
     FM291500 26006KT P6SM FEW250
     FM292100 17008KT P6SM SCT050 SCT250
     FM300300 VRB04KT P6SM SCT250=



000
FTUS41 KOKX 291121
TAFISP
TAF
KISP 291121Z 2912/3012 32004KT P6SM FEW250
     FM291500 24006KT P6SM SCT250
     FM291800 20009KT P6SM FEW050 SCT250
     FM300300 22006KT P6SM SCT250
     FM300600 VRB04KT P6SM SCT250=



000
FTUS41 KOKX 291121
TAFSWF
TAF
KSWF 291121Z 2912/3018 VRB03KT P6SM FEW250
     FM291500 26007KT P6SM FEW050 SCT250
     FM300100 VRB03KT P6SM FEW050 SCT200
     FM301400 27005KT P6SM SCT050 SCT150
      AMD NOT SKED=



000
FTUS41 KOKX 291121
TAFEWR
TAF
KEWR 291121Z 2912/3018 35004KT P6SM FEW250
     FM291500 25006KT P6SM FEW050 SCT250
     FM292100 16009KT P6SM SCT050 SCT250
     FM300300 23006KT P6SM SCT250
     FM301200 26007KT P6SM SCT200=



000
FTUS41 KOKX 291121
TAFGON
TAF
KGON 291121Z 2912/3012 24005KT P6SM SKC
     FM291500 20009KT P6SM FEW050 SCT250
     FM300200 VRB04KT P6SM SCT250=



000
FTUS41 KOKX 291121
TAFBDR
TAF
KBDR 291121Z 2912/3012 VRB03KT P6SM FEW250
     FM291400 25005KT P6SM FEW250
     FM291600 20009KT P6SM FEW050 SCT250
     FM300300 VRB04KT P6SM SCT250=



000
FTUS41 KOKX 291121
TAFJFK
TAF
KJFK 291121Z 2912/3018 28005KT P6SM FEW250
     FM291600 18012KT P6SM SCT050 SCT250
     FM300300 22008KT P6SM SCT250
     FM300900 25006KT P6SM SCT250
     FM301500 23009KT P6SM FEW050 SCT200=



000
FTUS41 KOKX 290830 AAA
TAFGON
TAF AMD
KGON 290830Z 2909/3006 VRB02KT P6SM SKC
     FM291300 21005KT P6SM SKC
     FM291500 20008KT P6SM FEW050 SCT250
     FM300200 VRB04KT P6SM SCT250=



000
FTUS41 KOKX 290830 AAA
TAFSWF
TAF AMD
KSWF 290830Z 2909/3012 VRB03KT P6SM FEW250
     FM291500 26007KT P6SM FEW050 SCT250
     FM300100 VRB03KT P6SM SCT250
      AMD NOT SKED=



000
FTUS41 KOKX 290830 AAA
TAFEWR
TAF AMD
KEWR 290830Z 2909/3012 VRB03KT P6SM SCT250
     FM291300 27006KT P6SM FEW250
     FM292100 16009KT P6SM SCT050 SCT250
     FM300300 22005KT P6SM SCT250
     FM300900 26005KT P6SM SCT250=



000
FTUS41 KOKX 290830 AAA
TAFBDR
TAF AMD
KBDR 290830Z 2909/3006 VRB05KT P6SM FEW250
     FM291300 23004KT P6SM FEW250
     FM291600 20008KT P6SM FEW050 SCT250
     FM300200 VRB05KT P6SM SCT250=



000
FTUS41 KOKX 290830 AAA
TAFJFK
TAF AMD
KJFK 290830Z 2909/3012 26004KT P6SM SCT250
     FM291300 27005KT P6SM FEW250
     FM291600 18012KT P6SM SCT050 SCT250
     FM300300 22008KT P6SM SCT250
     FM300900 25006KT P6SM SCT250=



000
FTUS41 KOKX 290830 AAA
TAFISP
TAF AMD
KISP 290830Z 2909/3006 VRB02KT P6SM FEW250
     FM291300 26005KT P6SM FEW250
     FM291800 20009KT P6SM FEW050 SCT250
     FM300300 22006KT P6SM SCT250=



000
FTUS41 KOKX 290830 AAA
TAFTEB
TAF AMD
KTEB 290830Z 2909/3006 VRB03KT P6SM SCT250
     FM291500 25006KT P6SM FEW250
     FM292100 16008KT P6SM SCT050 SCT250
     FM300300 VRB04KT P6SM SCT250=



000
FTUS41 KOKX 290830 AAA
TAFLGA
TAF AMD
KLGA 290830Z 2909/3006 VRB03KT P6SM SCT250
     FM291300 32006KT P6SM FEW250
     FM291800 18010KT P6SM SCT050 SCT250
     FM300300 22007KT P6SM SCT250=



000
FTUS41 KOKX 290523
TAFGON
TAF
KGON 290523Z 2906/3006 VRB02KT P6SM SKC
     FM291300 21005KT P6SM SKC
     FM291500 20008KT P6SM FEW050 SCT250
     FM300200 VRB04KT P6SM SCT250=



000
FTUS41 KOKX 290523
TAFBDR
TAF
KBDR 290523Z 2906/3006 VRB02KT P6SM SKC
     FM291300 23004KT P6SM FEW250
     FM291600 20008KT P6SM FEW050 SCT250
     FM300200 VRB05KT P6SM SCT250=



000
FTUS41 KOKX 290523
TAFJFK
TAF
KJFK 290523Z 2906/3012 25004KT P6SM FEW250
     FM291300 23005KT P6SM FEW250
     FM291600 18012KT P6SM SCT050 SCT250
     FM300300 22008KT P6SM SCT250
     FM300900 25006KT P6SM SCT250=



000
FTUS41 KOKX 290523
TAFEWR
TAF
KEWR 290523Z 2906/3012 VRB03KT P6SM FEW250
     FM291300 27006KT P6SM FEW250
     FM292100 16009KT P6SM SCT050 SCT250
     FM300300 22005KT P6SM SCT250
     FM300900 26005KT P6SM SCT250=



000
FTUS41 KOKX 290523
TAFLGA
TAF
KLGA 290523Z 2906/3006 04004KT P6SM FEW250
     FM291300 32006KT P6SM FEW250
     FM291800 18010KT P6SM SCT050 SCT250
     FM300300 22007KT P6SM SCT250=



000
FTUS41 KOKX 290523
TAFSWF
TAF
KSWF 290523Z 2906/3012 VRB03KT P6SM SKC
     FM291500 26007KT P6SM FEW050 SCT250
     FM300100 VRB03KT P6SM SCT250
      AMD NOT SKED=



000
FTUS41 KOKX 290523
TAFISP
TAF
KISP 290523Z 2906/3006 VRB02KT P6SM SKC
     FM291300 26005KT P6SM FEW250
     FM291800 20009KT P6SM FEW050 SCT250
     FM300300 22006KT P6SM SCT250=



000
FTUS41 KOKX 290523
TAFTEB
TAF
KTEB 290523Z 2906/3006 VRB03KT P6SM FEW250
     FM291500 25006KT P6SM FEW250
     FM292100 16008KT P6SM SCT050 SCT250
     FM300300 VRB04KT P6SM SCT250=



000
FTUS41 KOKX 290523
TAFTEB
TAF
KTEB 290523Z 2906/3006 VRB03KT P6SM FEW250
     FM291500 25006KT P6SM FEW250
     FM292100 16008KT P6SM SCT050 SCT250
     FM300300 VRB04KT P6SM SCT250=



000
FTUS41 KOKX 290523
TAFLGA
TAF
KLGA 290523Z 2906/3006 04004KT P6SM FEW250
     FM291300 32006KT P6SM FEW250
     FM291800 18010KT P6SM SCT050 SCT250
     FM300300 22007KT P6SM SCT250=



000
FTUS41 KOKX 290523
TAFEWR
TAF
KEWR 290523Z 2906/3012 VRB03KT P6SM FEW250
     FM291300 27006KT P6SM FEW250
     FM292100 16009KT P6SM SCT050 SCT250
     FM300300 22005KT P6SM SCT250
     FM300900 26005KT P6SM SCT250=



000
FTUS41 KOKX 290523
TAFJFK
TAF
KJFK 290523Z 2906/3012 25004KT P6SM FEW250
     FM291300 23005KT P6SM FEW250
     FM291600 18012KT P6SM SCT050 SCT250
     FM300300 22008KT P6SM SCT250
     FM300900 25006KT P6SM SCT250=



000
FTUS41 KOKX 290523
TAFSWF
TAF
KSWF 290523Z 2906/3012 VRB03KT P6SM SKC
     FM291500 26007KT P6SM FEW050 SCT250
     FM300100 VRB03KT P6SM SCT250
      AMD NOT SKED=



000
FTUS41 KOKX 290523
TAFISP
TAF
KISP 290523Z 2906/3006 VRB02KT P6SM SKC
     FM291300 26005KT P6SM FEW250
     FM291800 20009KT P6SM FEW050 SCT250
     FM300300 22006KT P6SM SCT250=



000
FTUS41 KOKX 290523
TAFGON
TAF
KGON 290523Z 2906/3006 VRB02KT P6SM SKC
     FM291300 21005KT P6SM SKC
     FM291500 20008KT P6SM FEW050 SCT250
     FM300200 VRB04KT P6SM SCT250=



000
FTUS41 KOKX 290523
TAFBDR
TAF
KBDR 290523Z 2906/3006 VRB02KT P6SM SKC
     FM291300 23004KT P6SM FEW250
     FM291600 20008KT P6SM FEW050 SCT250
     FM300200 VRB05KT P6SM SCT250=



000
FTUS41 KOKX 290234 AAA
TAFEWR
TAF AMD
KEWR 290234Z 2903/3006 VRB03KT P6SM SKC
     FM291300 27005KT P6SM FEW250
     FM292100 15007KT P6SM SCT250
     FM300200 23005KT P6SM SCT250=



000
FTUS41 KOKX 290234 AAA
TAFTEB
TAF AMD
KTEB 290234Z 2903/2924 VRB03KT P6SM SKC
     FM291400 24006KT P6SM FEW250
     FM292200 16007KT P6SM SCT250=



000
FTUS41 KOKX 290234 AAA
TAFISP
TAF AMD
KISP 290234Z 2903/2924 VRB02KT P6SM SKC
     FM291300 26005KT P6SM FEW250
     FM291700 19009KT P6SM FEW250=



000
FTUS41 KOKX 290234 AAA
TAFLGA
TAF AMD
KLGA 290234Z 2903/2924 01005KT P6SM SCT060
     FM290600 VRB04KT P6SM SKC
     FM291300 30005KT P6SM FEW250
     FM291800 18009KT P6SM SCT250=



000
FTUS41 KOKX 290234 AAA
TAFJFK
TAF AMD
KJFK 290234Z 2903/3006 24006KT P6SM SCT060
     FM290600 VRB04KT P6SM SKC
     FM291300 23005KT P6SM FEW250
     FM291600 18012KT P6SM SCT250
     FM300200 22008KT P6SM SCT250=



000
FTUS41 KOKX 290234 AAA
TAFGON
TAF AMD
KGON 290234Z 2903/2924 VRB02KT P6SM SKC
     FM291300 21005KT P6SM SKC
     FM291500 20008KT P6SM FEW250=



000
FTUS41 KOKX 290234 AAA
TAFBDR
TAF AMD
KBDR 290234Z 2903/2924 VRB02KT P6SM SKC
     FM291300 22004KT P6SM FEW250
     FM291600 20008KT P6SM FEW250=



000
FTUS41 KOKX 282320
TAFJFK
TAF
KJFK 282320Z 2900/3006 23009KT P6SM FEW060
     FM290200 VRB04KT P6SM SKC
     FM291300 23005KT P6SM FEW250
     FM291600 18012KT P6SM SCT250
     FM300200 22008KT P6SM SCT250=



000
FTUS41 KOKX 282320
TAFBDR
TAF
KBDR 282320Z 2900/2924 22005KT P6SM SKC
     FM290100 VRB02KT P6SM SKC
     FM291300 22004KT P6SM FEW250
     FM291600 20008KT P6SM FEW250=



000
FTUS41 KOKX 282320
TAFJFK
TAF
KJFK 282320Z 2900/3006 23009KT P6SM FEW060
     FM290200 VRB04KT P6SM SKC
     FM291300 23005KT P6SM FEW250
     FM291600 18012KT P6SM SCT250
     FM300200 22008KT P6SM SCT250=



000
FTUS41 KOKX 282320
TAFTEB
TAF
KTEB 282320Z 2900/2924 VRB03KT P6SM SKC
     FM291400 24006KT P6SM FEW250
     FM292200 16007KT P6SM SCT250=



000
FTUS41 KOKX 282320
TAFGON
TAF
KGON 282320Z 2900/2924 VRB02KT P6SM SKC
     FM291300 21005KT P6SM SKC
     FM291500 20008KT P6SM FEW250=



000
FTUS41 KOKX 282320
TAFLGA
TAF
KLGA 282320Z 2900/2924 01006KT P6SM FEW060
     FM290200 VRB04KT P6SM SKC
     FM291300 30005KT P6SM FEW250
     FM291800 18009KT P6SM SCT250=



000
FTUS41 KOKX 282320
TAFGON
TAF
KGON 282320Z 2900/2924 VRB02KT P6SM SKC
     FM291300 21005KT P6SM SKC
     FM291500 20008KT P6SM FEW250=



000
FTUS41 KOKX 282320
TAFEWR
TAF
KEWR 282320Z 2900/3006 29005KT P6SM FEW060
     FM290100 VRB03KT P6SM SKC
     FM291300 27005KT P6SM FEW250
     FM292100 15007KT P6SM SCT250
     FM300200 23005KT P6SM SCT250=



000
FTUS41 KOKX 282320
TAFSWF
TAF
KSWF 282320Z 2900/3006 VRB02KT P6SM SKC
     FM291500 25006KT P6SM SCT250
     FM300100 VRB03KT P6SM SCT250
      AMD NOT SKED=



000
FTUS41 KOKX 282320
TAFEWR
TAF
KEWR 282320Z 2900/3006 29005KT P6SM FEW060
     FM290100 VRB03KT P6SM SKC
     FM291300 27005KT P6SM FEW250
     FM292100 15007KT P6SM SCT250
     FM300200 23005KT P6SM SCT250=



000
FTUS41 KOKX 282320
TAFISP
TAF
KISP 282320Z 2900/2924 23005KT P6SM FEW060
     FM290100 VRB02KT P6SM SKC
     FM291300 26005KT P6SM FEW250
     FM291700 19009KT P6SM FEW250=



000
FTUS41 KOKX 282320
TAFLGA
TAF
KLGA 282320Z 2900/2924 01006KT P6SM FEW060
     FM290200 VRB04KT P6SM SKC
     FM291300 30005KT P6SM FEW250
     FM291800 18009KT P6SM SCT250=



000
FTUS41 KOKX 282320
TAFISP
TAF
KISP 282320Z 2900/2924 23005KT P6SM FEW060
     FM290100 VRB02KT P6SM SKC
     FM291300 26005KT P6SM FEW250
     FM291700 19009KT P6SM FEW250=



000
FTUS41 KOKX 282320
TAFSWF
TAF
KSWF 282320Z 2900/3006 VRB02KT P6SM SKC
     FM291500 25006KT P6SM SCT250
     FM300100 VRB03KT P6SM SCT250
      AMD NOT SKED=



000
FTUS41 KOKX 282320
TAFTEB
TAF
KTEB 282320Z 2900/2924 VRB03KT P6SM SKC
     FM291400 24006KT P6SM FEW250
     FM292200 16007KT P6SM SCT250=



000
FTUS41 KOKX 282320
TAFBDR
TAF
KBDR 282320Z 2900/2924 22005KT P6SM SKC
     FM290100 VRB02KT P6SM SKC
     FM291300 22004KT P6SM FEW250
     FM291600 20008KT P6SM FEW250=



000
FTUS41 KOKX 282158 AAB
TAFEWR
TAF AMD
KEWR 282158Z 2822/2924 30007KT P6SM FEW060
     FM290000 VRB04KT P6SM SKC
     FM291600 15007KT P6SM SCT250=



000
FTUS41 KOKX 282158 AAB
TAFJFK
TAF AMD
KJFK 282158Z 2822/2924 22012KT P6SM FEW060
     FM290100 VRB04KT P6SM SKC
     FM291400 22006KT P6SM FEW250
     FM291600 18012KT P6SM SCT250=



000
FTUS41 KOKX 281941 AAA
TAFTEB
TAF AMD
KTEB 281941Z 2820/2918 VRB04KT P6SM SKC
     FM291600 22006KT P6SM SKC=



000
FTUS41 KOKX 281941 AAA
TAFEWR
TAF AMD
KEWR 281941Z 2820/2924 32007KT P6SM FEW060
     FM290000 VRB04KT P6SM SKC
     FM291600 15007KT P6SM SCT250=



000
FTUS41 KOKX 281941 AAA
TAFLGA
TAF AMD
KLGA 281941Z 2820/2918 32008KT P6SM FEW060
     FM282200 VRB05KT P6SM FEW060
     FM282300 18008KT P6SM FEW060
     FM290300 VRB04KT P6SM SKC
     FM291700 18008KT P6SM SCT250=



000
FTUS41 KOKX 281941 AAA
TAFJFK
TAF AMD
KJFK 281941Z 2820/2924 18008KT P6SM FEW060
     FM290100 VRB04KT P6SM SKC
     FM291400 22006KT P6SM FEW250
     FM291600 18012KT P6SM SCT250=



000
FTUS41 KOKX 281941 AAA
TAFISP
TAF AMD
KISP 281941Z 2820/2918 31007KT P6SM FEW060
     FM282300 VRB04KT P6SM SKC
     FM291600 19006KT P6SM FEW250=



000
FTUS41 KOKX 281941 AAA
TAFGON
TAF AMD
KGON 281941Z 2820/2918 20009KT P6SM SCT060
     FM282300 VRB02KT P6SM SKC
     FM291500 20008KT P6SM SKC=



000
FTUS41 KOKX 281941 AAA
TAFBDR
TAF AMD
KBDR 281941Z 2820/2918 20009KT P6SM SKC
     FM282300 VRB04KT P6SM SKC
     FM291500 20008KT P6SM SKC=



000
FTUS41 KOKX 281720
TAFEWR
TAF
KEWR 281720Z 2818/2924 32008G15KT P6SM SCT060
     FM282200 30006KT P6SM FEW060
     FM290200 VRB04KT P6SM SKC
     FM291600 15007KT P6SM SCT250=



000
FTUS41 KOKX 281720
TAFGON
TAF
KGON 281720Z 2818/2918 20009KT P6SM SCT050
      TEMPO 2818/2821 BKN045
     FM282300 VRB02KT P6SM SKC
     FM291500 20008KT P6SM SKC=



000
FTUS41 KOKX 281720
TAFISP
TAF
KISP 281720Z 2818/2918 VRB05KT P6SM SCT050 SCT250
     FM281900 19006KT P6SM SCT050
     FM290000 VRB02KT P6SM SKC
     FM291600 19006KT P6SM FEW250=



000
FTUS41 KOKX 281720
TAFTEB
TAF
KTEB 281720Z 2818/2918 34006KT P6SM SCT060
     FM282300 VRB02KT P6SM SKC
     FM291600 22006KT P6SM SKC=



000
FTUS41 KOKX 281720
TAFLGA
TAF
KLGA 281720Z 2818/2918 34006KT P6SM FEW050
     FM282100 VRB05KT P6SM FEW060
     FM282200 18008KT P6SM FEW060
     FM290300 VRB04KT P6SM SKC
     FM291700 18008KT P6SM SCT250=



000
FTUS41 KOKX 281720
TAFISP
TAF
KISP 281720Z 2818/2918 VRB05KT P6SM SCT050 SCT250
     FM281900 19006KT P6SM SCT050
     FM290000 VRB02KT P6SM SKC
     FM291600 19006KT P6SM FEW250=



000
FTUS41 KOKX 281720
TAFJFK
TAF
KJFK 281720Z 2818/2924 29007KT P6SM SCT060
     FM282000 VRB05KT P6SM FEW060
     FM282100 19009KT P6SM FEW060
     FM290400 VRB04KT P6SM SKC
     FM291400 22006KT P6SM FEW250
     FM291600 18012KT P6SM SCT250=



000
FTUS41 KOKX 281720
TAFBDR
TAF
KBDR 281720Z 2818/2918 21008KT P6SM FEW060
     FM282300 VRB03KT P6SM SKC
     FM291500 20008KT P6SM SKC=



000
FTUS41 KOKX 281720
TAFSWF
TAF
KSWF 281720Z 2818/2924 30006KT P6SM SCT030
     FM282200 VRB03KT P6SM SKC
     FM291700 25006KT P6SM SCT250
      AMD NOT SKED=



000
FTUS41 KOKX 281720
TAFLGA
TAF
KLGA 281720Z 2818/2918 34006KT P6SM FEW050
     FM282100 VRB05KT P6SM FEW060
     FM282200 18008KT P6SM FEW060
     FM290300 VRB04KT P6SM SKC
     FM291700 18008KT P6SM SCT250=



000
FTUS41 KOKX 281720
TAFEWR
TAF
KEWR 281720Z 2818/2924 32008G15KT P6SM SCT060
     FM282200 30006KT P6SM FEW060
     FM290200 VRB04KT P6SM SKC
     FM291600 15007KT P6SM SCT250=



000
FTUS41 KOKX 281720
TAFSWF
TAF
KSWF 281720Z 2818/2924 30006KT P6SM SCT030
     FM282200 VRB03KT P6SM SKC
     FM291700 25006KT P6SM SCT250
      AMD NOT SKED=



000
FTUS41 KOKX 281720
TAFGON
TAF
KGON 281720Z 2818/2918 20009KT P6SM SCT050
      TEMPO 2818/2821 BKN045
     FM282300 VRB02KT P6SM SKC
     FM291500 20008KT P6SM SKC=



000
FTUS41 KOKX 281720
TAFBDR
TAF
KBDR 281720Z 2818/2918 21008KT P6SM FEW060
     FM282300 VRB03KT P6SM SKC
     FM291500 20008KT P6SM SKC=



000
FTUS41 KOKX 281720
TAFTEB
TAF
KTEB 281720Z 2818/2918 34006KT P6SM SCT060
     FM282300 VRB02KT P6SM SKC
     FM291600 22006KT P6SM SKC=



000
FTUS41 KOKX 281720
TAFJFK
TAF
KJFK 281720Z 2818/2924 29007KT P6SM SCT060
     FM282000 VRB05KT P6SM FEW060
     FM282100 19009KT P6SM FEW060
     FM290400 VRB04KT P6SM SKC
     FM291400 22006KT P6SM FEW250
     FM291600 18012KT P6SM SCT250=



000
FTUS41 KOKX 281430 AAA
TAFBDR
TAF AMD
KBDR 281430Z 2815/2912 01007KT P6SM SKC
     FM281600 VRB05KT P6SM SKC
     FM281700 23007KT P6SM FEW250
     FM282300 VRB03KT P6SM SKC=



000
FTUS41 KOKX 281430 AAB
TAFJFK
TAF AMD
KJFK 281430Z 2815/2918 35008KT P6SM FEW040 SCT250
     FM281600 29008KT P6SM FEW050 SCT250
     FM281800 VRB05KT P6SM FEW050 SCT250
     FM281900 19009KT P6SM SCT250
     FM290200 VRB04KT P6SM SKC
     FM291600 20008KT P6SM SCT250=



000
FTUS41 KOKX 281430 AAB
TAFLGA
TAF AMD
KLGA 281430Z 2815/2912 36006KT P6SM FEW050 SCT250
     FM282000 VRB05KT P6SM FEW060 SCT250
     FM282100 18008KT P6SM SCT250
     FM290300 VRB04KT P6SM SKC=



000
FTUS41 KOKX 281430 AAA
TAFISP
TAF AMD
KISP 281430Z 2815/2912 35006KT P6SM FEW250
     FM281800 29007KT P6SM FEW050 SCT250
     FM282000 VRB05KT P6SM FEW060 SCT250
     FM282100 19006KT P6SM SCT250
     FM290000 VRB02KT P6SM SKC=



000
FTUS41 KOKX 281430 AAA
TAFTEB
TAF AMD
KTEB 281430Z 2815/2912 VRB05KT P6SM SKC
     FM281800 30006KT P6SM FEW050 SCT250
     FM282100 VRB05KT P6SM FEW250
     FM282300 19006KT P6SM SKC
     FM290100 VRB02KT P6SM SKC=



000
FTUS41 KOKX 281430 AAB
TAFEWR
TAF AMD
KEWR 281430Z 2815/2918 35007KT P6SM FEW040 SCT250
     FM281800 32006KT P6SM FEW050 SCT250
     FM282100 VRB05KT P6SM FEW060 SCT250
     FM282300 15006KT P6SM FEW250
     FM290200 VRB04KT P6SM SKC
     FM291600 20008KT P6SM SCT250=



000
FTUS41 KOKX 281430 AAA
TAFGON
TAF AMD
KGON 281430Z 2815/2912 01008KT P6SM SKC
     FM281600 VRB05KT P6SM SKC
     FM281700 23008KT P6SM FEW250
     FM282300 VRB02KT P6SM SKC=



000
FTUS41 KOKX 281257 AAA
TAFJFK
TAF AMD
KJFK 281257Z 2813/2918 35008KT P6SM FEW060 SCT250
     FM281500 32008KT P6SM FEW060 SCT250
     FM281600 VRB05KT P6SM FEW050 SCT250
     FM281800 19010KT P6SM SCT250
     FM290200 VRB04KT P6SM SKC
     FM291600 20008KT P6SM SCT250=



000
FTUS41 KOKX 281257 AAA
TAFJFK
TAF AMD
KJFK 281257Z 2813/2918 35008KT P6SM FEW060 SCT250
     FM281500 32008KT P6SM FEW060 SCT250
     FM281600 VRB05KT P6SM FEW050 SCT250
     FM281800 19010KT P6SM SCT250
     FM290200 VRB04KT P6SM SKC
     FM291600 20008KT P6SM SCT250=



000
FTUS41 KOKX 281245 AAA
TAFLGA
TAF AMD
KLGA 281245Z 2813/2912 VRB05KT P6SM FEW060 SCT250
     FM281400 35006KT P6SM FEW060 SCT250
     FM282000 VRB05KT P6SM FEW060 SCT250
     FM282100 19008KT P6SM SCT250
     FM290300 VRB05KT P6SM SKC=



000
FTUS41 KOKX 281245 AAA
TAFLGA
TAF AMD
KLGA 281245Z 2813/2912 VRB05KT P6SM FEW060 SCT250
     FM281400 35006KT P6SM FEW060 SCT250
     FM282000 VRB05KT P6SM FEW060 SCT250
     FM282100 19008KT P6SM SCT250
     FM290300 VRB05KT P6SM SKC=



000
FTUS41 KOKX 281241 AAA
TAFEWR
TAF AMD
KEWR 281241Z 2813/2918 VRB05KT P6SM FEW060 SCT250
     FM281500 35006KT P6SM FEW060 SCT250
     FM281700 32006KT P6SM FEW060 SCT250
     FM281900 29006KT P6SM FEW060 SCT250
     FM282200 21006KT P6SM FEW250
     FM290200 VRB05KT P6SM SKC
     FM291600 20008KT P6SM SCT250=



000
FTUS41 KOKX 281241 AAA
TAFEWR
TAF AMD
KEWR 281241Z 2813/2918 VRB05KT P6SM FEW060 SCT250
     FM281500 35006KT P6SM FEW060 SCT250
     FM281700 32006KT P6SM FEW060 SCT250
     FM281900 29006KT P6SM FEW060 SCT250
     FM282200 21006KT P6SM FEW250
     FM290200 VRB05KT P6SM SKC
     FM291600 20008KT P6SM SCT250=



000
FTUS41 KOKX 281120
TAFJFK
TAF
KJFK 281120Z 2812/2918 34007KT P6SM FEW250
     FM281600 27006KT P6SM FEW050 SCT250
     FM281800 20010KT P6SM SCT250
     FM290200 22006KT P6SM SKC
     FM290600 VRB04KT P6SM SKC
     FM291600 20008KT P6SM SCT250=



000
FTUS41 KOKX 281120
TAFGON
TAF
KGON 281120Z 2812/2912 36005KT P6SM FEW250
     FM281700 21007KT P6SM SKC
     FM282300 VRB04KT P6SM SKC=



000
FTUS41 KOKX 281120
TAFTEB
TAF
KTEB 281120Z 2812/2912 34004KT P6SM SKC
     FM281600 26005KT P6SM FEW050 SCT250
     FM282200 23004KT P6SM FEW250
     FM290200 VRB02KT P6SM SKC=



000
FTUS41 KOKX 281120
TAFJFK
TAF
KJFK 281120Z 2812/2918 34007KT P6SM FEW250
     FM281600 27006KT P6SM FEW050 SCT250
     FM281800 20010KT P6SM SCT250
     FM290200 22006KT P6SM SKC
     FM290600 VRB04KT P6SM SKC
     FM291600 20008KT P6SM SCT250=



000
FTUS41 KOKX 281120
TAFLGA
TAF
KLGA 281120Z 2812/2912 36008KT P6SM FEW250
     FM281700 25005KT P6SM FEW050 SCT250
     FM282200 19008KT P6SM SCT250
     FM290300 VRB05KT P6SM SKC=



000
FTUS41 KOKX 281120
TAFSWF
TAF
KSWF 281120Z 2812/2918 VRB03KT P6SM SKC
     FM281500 27006KT P6SM SKC
     FM290100 VRB03KT P6SM SKC
      AMD NOT SKED=



000
FTUS41 KOKX 281120
TAFTEB
TAF
KTEB 281120Z 2812/2912 34004KT P6SM SKC
     FM281600 26005KT P6SM FEW050 SCT250
     FM282200 23004KT P6SM FEW250
     FM290200 VRB02KT P6SM SKC=



000
FTUS41 KOKX 281120
TAFGON
TAF
KGON 281120Z 2812/2912 36005KT P6SM FEW250
     FM281700 21007KT P6SM SKC
     FM282300 VRB04KT P6SM SKC=



000
FTUS41 KOKX 281120
TAFEWR
TAF
KEWR 281120Z 2812/2918 32005KT P6SM FEW250
     FM281600 28005KT P6SM FEW050 SCT250
     FM282200 22006KT P6SM FEW250
     FM290200 VRB05KT P6SM SKC
     FM291600 20008KT P6SM SCT250=



000
FTUS41 KOKX 281120
TAFBDR
TAF
KBDR 281120Z 2812/2912 35006KT P6SM SKC
     FM281700 21006KT P6SM FEW250
     FM282300 VRB03KT P6SM SKC=



000
FTUS41 KOKX 281120
TAFSWF
TAF
KSWF 281120Z 2812/2918 VRB03KT P6SM SKC
     FM281500 27006KT P6SM SKC
     FM290100 VRB03KT P6SM SKC
      AMD NOT SKED=



000
FTUS41 KOKX 281120
TAFISP
TAF
KISP 281120Z 2812/2912 35004KT P6SM FEW250
     FM281700 27005KT P6SM FEW050 SCT250
     FM282100 20006KT P6SM SCT250
     FM282300 VRB03KT P6SM SKC=



000
FTUS41 KOKX 281120
TAFLGA
TAF
KLGA 281120Z 2812/2912 36008KT P6SM FEW250
     FM281700 25005KT P6SM FEW050 SCT250
     FM282200 19008KT P6SM SCT250
     FM290300 VRB05KT P6SM SKC=



000
FTUS41 KOKX 281120
TAFEWR
TAF
KEWR 281120Z 2812/2918 32005KT P6SM FEW250
     FM281600 28005KT P6SM FEW050 SCT250
     FM282200 22006KT P6SM FEW250
     FM290200 VRB05KT P6SM SKC
     FM291600 20008KT P6SM SCT250=



000
FTUS41 KOKX 281120
TAFISP
TAF
KISP 281120Z 2812/2912 35004KT P6SM FEW250
     FM281700 27005KT P6SM FEW050 SCT250
     FM282100 20006KT P6SM SCT250
     FM282300 VRB03KT P6SM SKC=



000
FTUS41 KOKX 281120
TAFBDR
TAF
KBDR 281120Z 2812/2912 35006KT P6SM SKC
     FM281700 21006KT P6SM FEW250
     FM282300 VRB03KT P6SM SKC=



000
FTUS41 KOKX 280831 AAA
TAFEWR
TAF AMD
KEWR 280831Z 2809/2912 32005KT P6SM FEW250
     FM281600 28005KT P6SM FEW050 SCT250
     FM282200 22006KT P6SM FEW250
     FM290200 VRB05KT P6SM SKC=



000
FTUS41 KOKX 280831 AAA
TAFJFK
TAF AMD
KJFK 280831Z 2809/2912 34007KT P6SM FEW250
     FM281600 27006KT P6SM FEW050 SCT250
     FM281800 20010KT P6SM SCT250
     FM290200 22006KT P6SM SKC
     FM290600 VRB04KT P6SM SKC=



000
FTUS41 KOKX 280831 AAA
TAFLGA
TAF AMD
KLGA 280831Z 2809/2906 36008KT P6SM FEW250
     FM281700 25005KT P6SM FEW050 SCT250
     FM282200 19008KT P6SM SCT250
     FM290300 VRB05KT P6SM SKC=



000
FTUS41 KOKX 280831 AAA
TAFISP
TAF AMD
KISP 280831Z 2809/2906 35004KT P6SM FEW250
     FM281700 27005KT P6SM FEW050 SCT250
     FM282100 20006KT P6SM SCT250
     FM282300 VRB03KT P6SM SKC=



000
FTUS41 KOKX 280831 AAA
TAFBDR
TAF AMD
KBDR 280831Z 2809/2906 35006KT P6SM SKC
     FM281700 21006KT P6SM FEW250
     FM282300 VRB03KT P6SM SKC=



000
FTUS41 KOKX 280831 AAA
TAFTEB
TAF AMD
KTEB 280831Z 2809/2906 34004KT P6SM SKC
     FM281600 26005KT P6SM FEW050 SCT250
     FM282200 23004KT P6SM FEW250
     FM290200 VRB02KT P6SM SKC=



000
FTUS41 KOKX 280831 AAA
TAFSWF
TAF AMD
KSWF 280831Z 2809/2912 VRB03KT P6SM SKC
     FM281500 27006KT P6SM SKC
     FM290100 VRB03KT P6SM SKC
      AMD NOT SKED=



000
FTUS41 KOKX 280831 AAA
TAFLGA
TAF AMD
KLGA 280831Z 2809/2906 36008KT P6SM FEW250
     FM281700 25005KT P6SM FEW050 SCT250
     FM282200 19008KT P6SM SCT250
     FM290300 VRB05KT P6SM SKC=



000
FTUS41 KOKX 280831 AAA
TAFBDR
TAF AMD
KBDR 280831Z 2809/2906 35006KT P6SM SKC
     FM281700 21006KT P6SM FEW250
     FM282300 VRB03KT P6SM SKC=



000
FTUS41 KOKX 280831 AAA
TAFTEB
TAF AMD
KTEB 280831Z 2809/2906 34004KT P6SM SKC
     FM281600 26005KT P6SM FEW050 SCT250
     FM282200 23004KT P6SM FEW250
     FM290200 VRB02KT P6SM SKC=



000
FTUS41 KOKX 280831 AAA
TAFGON
TAF AMD
KGON 280831Z 2809/2906 36005KT P6SM FEW250
     FM281700 21007KT P6SM SKC
     FM282300 VRB04KT P6SM SKC=



000
FTUS41 KOKX 280831 AAA
TAFJFK
TAF AMD
KJFK 280831Z 2809/2912 34007KT P6SM FEW250
     FM281600 27006KT P6SM FEW050 SCT250
     FM281800 20010KT P6SM SCT250
     FM290200 22006KT P6SM SKC
     FM290600 VRB04KT P6SM SKC=



000
FTUS41 KOKX 280831 AAA
TAFSWF
TAF AMD
KSWF 280831Z 2809/2912 VRB03KT P6SM SKC
     FM281500 27006KT P6SM SKC
     FM290100 VRB03KT P6SM SKC
      AMD NOT SKED=



000
FTUS41 KOKX 280831 AAA
TAFGON
TAF AMD
KGON 280831Z 2809/2906 36005KT P6SM FEW250
     FM281700 21007KT P6SM SKC
     FM282300 VRB04KT P6SM SKC=



000
FTUS41 KOKX 280831 AAA
TAFEWR
TAF AMD
KEWR 280831Z 2809/2912 32005KT P6SM FEW250
     FM281600 28005KT P6SM FEW050 SCT250
     FM282200 22006KT P6SM FEW250
     FM290200 VRB05KT P6SM SKC=



000
FTUS41 KOKX 280831 AAA
TAFISP
TAF AMD
KISP 280831Z 2809/2906 35004KT P6SM FEW250
     FM281700 27005KT P6SM FEW050 SCT250
     FM282100 20006KT P6SM SCT250
     FM282300 VRB03KT P6SM SKC=



000
FTUS41 KOKX 280531
TAFTEB
TAF
KTEB 280531Z 2806/2906 34004KT P6SM SKC
     FM281600 26005KT P6SM FEW050 SCT250
     FM282200 23004KT P6SM FEW250
     FM290200 VRB02KT P6SM SKC=



000
FTUS41 KOKX 280531
TAFLGA
TAF
KLGA 280531Z 2806/2906 36008KT P6SM FEW250
     FM281700 25005KT P6SM FEW050 SCT250
     FM282200 19008KT P6SM SCT250
     FM290300 VRB05KT P6SM SKC=



000
FTUS41 KOKX 280531
TAFEWR
TAF
KEWR 280531Z 2806/2912 35007KT P6SM FEW250
     FM281600 28005KT P6SM FEW050 SCT250
     FM282200 22006KT P6SM FEW250
     FM290200 VRB05KT P6SM SKC=



000
FTUS41 KOKX 280531
TAFJFK
TAF
KJFK 280531Z 2806/2912 34007KT P6SM FEW250
     FM281600 27006KT P6SM FEW050 SCT250
     FM281800 20010KT P6SM SCT250
     FM290200 22006KT P6SM SKC
     FM290600 VRB04KT P6SM SKC=



000
FTUS41 KOKX 280531
TAFISP
TAF
KISP 280531Z 2806/2906 35004KT P6SM FEW250
     FM281700 27005KT P6SM FEW050 SCT250
     FM282100 20006KT P6SM SCT250
     FM282300 VRB03KT P6SM SKC=



000
FTUS41 KOKX 280531
TAFGON
TAF
KGON 280531Z 2806/2906 36005KT P6SM FEW250
     FM281700 21007KT P6SM SKC
     FM282300 VRB04KT P6SM SKC=



000
FTUS41 KOKX 280531
TAFBDR
TAF
KBDR 280531Z 2806/2906 35006KT P6SM SKC
     FM281700 21006KT P6SM FEW250
     FM282300 VRB03KT P6SM SKC=



000
FTUS41 KOKX 280531
TAFJFK
TAF
KJFK 280531Z 2806/2912 34007KT P6SM FEW250
     FM281600 27006KT P6SM FEW050 SCT250
     FM281800 20010KT P6SM SCT250
     FM290200 22006KT P6SM SKC
     FM290600 VRB04KT P6SM SKC=



000
FTUS41 KOKX 280531
TAFISP
TAF
KISP 280531Z 2806/2906 35004KT P6SM FEW250
     FM281700 27005KT P6SM FEW050 SCT250
     FM282100 20006KT P6SM SCT250
     FM282300 VRB03KT P6SM SKC=



000
FTUS41 KOKX 280531
TAFLGA
TAF
KLGA 280531Z 2806/2906 36008KT P6SM FEW250
     FM281700 25005KT P6SM FEW050 SCT250
     FM282200 19008KT P6SM SCT250
     FM290300 VRB05KT P6SM SKC=



000
FTUS41 KOKX 280531
TAFEWR
TAF
KEWR 280531Z 2806/2912 35007KT P6SM FEW250
     FM281600 28005KT P6SM FEW050 SCT250
     FM282200 22006KT P6SM FEW250
     FM290200 VRB05KT P6SM SKC=



000
FTUS41 KOKX 280531
TAFSWF
TAF
KSWF 280531Z 2806/2912 VRB03KT P6SM SKC
     FM281500 27006KT P6SM SKC
     FM290100 VRB03KT P6SM SKC
      AMD NOT SKED=



000
FTUS41 KOKX 280531
TAFTEB
TAF
KTEB 280531Z 2806/2906 34004KT P6SM SKC
     FM281600 26005KT P6SM FEW050 SCT250
     FM282200 23004KT P6SM FEW250
     FM290200 VRB02KT P6SM SKC=



000
FTUS41 KOKX 280531
TAFGON
TAF
KGON 280531Z 2806/2906 36005KT P6SM FEW250
     FM281700 21007KT P6SM SKC
     FM282300 VRB04KT P6SM SKC=



000
FTUS41 KOKX 280531
TAFBDR
TAF
KBDR 280531Z 2806/2906 35006KT P6SM SKC
     FM281700 21006KT P6SM FEW250
     FM282300 VRB03KT P6SM SKC=



000
FTUS41 KOKX 280531
TAFSWF
TAF
KSWF 280531Z 2806/2912 VRB03KT P6SM SKC
     FM281500 27006KT P6SM SKC
     FM290100 VRB03KT P6SM SKC
      AMD NOT SKED=



000
FTUS41 KOKX 280230 AAA
TAFBDR
TAF AMD
KBDR 280230Z 2803/2824 35006KT P6SM SKC
     FM281700 21006KT P6SM FEW250=



000
FTUS41 KOKX 280230 AAA
TAFJFK
TAF AMD
KJFK 280230Z 2803/2906 35007KT P6SM FEW250
     FM281600 27006KT P6SM FEW050 SCT250
     FM281800 20010KT P6SM SCT250
     FM290200 22006KT P6SM SKC=



000
FTUS41 KOKX 280230 AAA
TAFEWR
TAF AMD
KEWR 280230Z 2803/2906 35007KT P6SM FEW250
     FM281600 28005KT P6SM FEW050 SCT250
     FM282200 22006KT P6SM FEW250
     FM290200 25005KT P6SM SKC=



000
FTUS41 KOKX 280230 AAA
TAFTEB
TAF AMD
KTEB 280230Z 2803/2824 34004KT P6SM SKC
     FM281600 26005KT P6SM FEW050 SCT250=



000
FTUS41 KOKX 280230 AAA
TAFGON
TAF AMD
KGON 280230Z 2803/2824 36005KT P6SM FEW250
     FM281700 21007KT P6SM SKC=



000
FTUS41 KOKX 280230 AAA
TAFLGA
TAF AMD
KLGA 280230Z 2803/2824 36008KT P6SM FEW250
     FM281700 25005KT P6SM FEW050 SCT250
     FM282200 19008KT P6SM SCT250=



000
FTUS41 KOKX 280230 AAA
TAFISP
TAF AMD
KISP 280230Z 2803/2824 30005KT P6SM FEW250
     FM280400 35004KT P6SM FEW250
     FM281700 27005KT P6SM FEW050 SCT250
     FM282100 20006KT P6SM SCT250=



000
FTUS41 KOKX 272320
TAFLGA
TAF
KLGA 272320Z 2800/2824 32010KT P6SM FEW050 BKN250
     FM280300 01006KT P6SM SCT250
     FM281700 25005KT P6SM FEW050 SCT250
     FM282200 19008KT P6SM SCT250=



000
FTUS41 KOKX 272320
TAFEWR
TAF
KEWR 272320Z 2800/2906 32010KT P6SM FEW050 BKN250
     FM280300 35008KT P6SM SCT250
     FM281600 28005KT P6SM FEW050 SCT250
     FM282200 22006KT P6SM FEW250
     FM290200 25005KT P6SM SKC=



000
FTUS41 KOKX 272320
TAFJFK
TAF
KJFK 272320Z 2800/2906 33008KT P6SM FEW060 BKN250
     FM280300 35007KT P6SM SCT250
     FM281600 27006KT P6SM FEW050 SCT250
     FM281800 20010KT P6SM SCT250
     FM290200 22006KT P6SM SKC=



000
FTUS41 KOKX 272320
TAFLGA
TAF
KLGA 272320Z 2800/2824 32010KT P6SM FEW050 BKN250
     FM280300 01006KT P6SM SCT250
     FM281700 25005KT P6SM FEW050 SCT250
     FM282200 19008KT P6SM SCT250=



000
FTUS41 KOKX 272320
TAFGON
TAF
KGON 272320Z 2800/2824 31005KT P6SM FEW250
     FM280500 35006KT P6SM SKC
     FM281700 21007KT P6SM SKC=



000
FTUS41 KOKX 272320
TAFTEB
TAF
KTEB 272320Z 2800/2824 33006KT P6SM FEW060 SCT250
     FM280200 35003KT P6SM FEW250
     FM281600 26005KT P6SM FEW050 SCT250=



000
FTUS41 KOKX 272320
TAFTEB
TAF
KTEB 272320Z 2800/2824 33006KT P6SM FEW060 SCT250
     FM280200 35003KT P6SM FEW250
     FM281600 26005KT P6SM FEW050 SCT250=



000
FTUS41 KOKX 272320
TAFGON
TAF
KGON 272320Z 2800/2824 31005KT P6SM FEW250
     FM280500 35006KT P6SM SKC
     FM281700 21007KT P6SM SKC=



000
FTUS41 KOKX 272320
TAFJFK
TAF
KJFK 272320Z 2800/2906 33008KT P6SM FEW060 BKN250
     FM280300 35007KT P6SM SCT250
     FM281600 27006KT P6SM FEW050 SCT250
     FM281800 20010KT P6SM SCT250
     FM290200 22006KT P6SM SKC=



000
FTUS41 KOKX 272320
TAFISP
TAF
KISP 272320Z 2800/2824 32008KT P6SM SCT250
     FM280400 36004KT P6SM SCT250
     FM281700 27005KT P6SM FEW050 SCT250
     FM282100 20006KT P6SM SCT250=



000
FTUS41 KOKX 272320
TAFBDR
TAF
KBDR 272320Z 2800/2824 30005KT P6SM SKC
     FM280200 36004KT P6SM SKC
     FM281700 21006KT P6SM FEW250=



000
FTUS41 KOKX 272320
TAFEWR
TAF
KEWR 272320Z 2800/2906 32010KT P6SM FEW050 BKN250
     FM280300 35008KT P6SM SCT250
     FM281600 28005KT P6SM FEW050 SCT250
     FM282200 22006KT P6SM FEW250
     FM290200 25005KT P6SM SKC=



000
FTUS41 KOKX 272320
TAFSWF
TAF
KSWF 272320Z 2800/2906 28008KT P6SM FEW050
     FM280200 VRB03KT P6SM SKC
     FM281500 27006KT P6SM SKC
     FM290100 VRB03KT P6SM SKC
      AMD NOT SKED=



000
FTUS41 KOKX 272320
TAFISP
TAF
KISP 272320Z 2800/2824 32008KT P6SM SCT250
     FM280400 36004KT P6SM SCT250
     FM281700 27005KT P6SM FEW050 SCT250
     FM282100 20006KT P6SM SCT250=



000
FTUS41 KOKX 272320
TAFSWF
TAF
KSWF 272320Z 2800/2906 28008KT P6SM FEW050
     FM280200 VRB03KT P6SM SKC
     FM281500 27006KT P6SM SKC
     FM290100 VRB03KT P6SM SKC
      AMD NOT SKED=



000
FTUS41 KOKX 272320
TAFBDR
TAF
KBDR 272320Z 2800/2824 30005KT P6SM SKC
     FM280200 36004KT P6SM SKC
     FM281700 21006KT P6SM FEW250=



000
FTUS41 KOKX 272226 AAB
TAFEWR
TAF AMD
KEWR 272226Z 2722/2824 32010KT P6SM FEW050 SCT250
     FM280400 35008KT P6SM SCT250
     FM281800 22006KT P6SM SKC=



000
FTUS41 KOKX 272226 AAB
TAFJFK
TAF AMD
KJFK 272226Z 2722/2824 33011KT P6SM FEW050 BKN250
     FM280400 33007KT P6SM SCT250
     FM280700 36006KT P6SM SKC
     FM281800 20010KT P6SM SKC=



000
FTUS41 KOKX 272103 AAB
TAFBDR
TAF AMD
KBDR 272103Z 2721/2818 32010KT P6SM SCT050
     FM280000 30005KT P6SM SCT250
     FM280400 35005KT P6SM SCT250
     FM281500 10006KT P6SM SCT250=



000
FTUS41 KOKX 272102 AAB
TAFISP
TAF AMD
KISP 272102Z 2721/2818 32011KT P6SM SCT060 BKN250
     FM272300 27006KT P6SM SCT250
     FM280400 35004KT P6SM SCT250=



000
FTUS41 KOKX 272030 AAA
TAFISP
TAF AMD
KISP 272030Z 2721/2818 29010KT P6SM SCT050 BKN250
     FM272300 27006KT P6SM SCT250
     FM280400 35004KT P6SM SCT250=



000
FTUS41 KOKX 272030 AAA
TAFLGA
TAF AMD
KLGA 272030Z 2721/2818 32010KT P6SM FEW050 BKN250
     FM280000 32010KT P6SM SCT250
     FM280400 36008KT P6SM SCT250=



000
FTUS41 KOKX 272030 AAA
TAFJFK
TAF AMD
KJFK 272030Z 2721/2824 29010KT P6SM FEW050 BKN250
     FM280400 33007KT P6SM SCT250
     FM280700 36006KT P6SM SKC
     FM281800 20010KT P6SM SKC=



000
FTUS41 KOKX 272030 AAA
TAFEWR
TAF AMD
KEWR 272030Z 2721/2824 30012G18KT P6SM SCT050 SCT250
     FM272300 30010KT P6SM FEW050 SCT250
     FM280400 35008KT P6SM SCT250
     FM281800 22006KT P6SM SKC=



000
FTUS41 KOKX 272030 AAA
TAFTEB
TAF AMD
KTEB 272030Z 2721/2818 30011G18KT P6SM SCT050 SCT250
     FM272200 32008KT P6SM FEW050 SCT250
     FM280400 34005KT P6SM SCT250=



000
FTUS41 KOKX 272030 AAA
TAFBDR
TAF AMD
KBDR 272030Z 2721/2818 26010KT P6SM BKN050
     FM280000 30005KT P6SM SCT250
     FM280400 35005KT P6SM SCT250
     FM281500 10006KT P6SM SCT250=



000
FTUS41 KOKX 272030 AAB
TAFGON
TAF AMD
KGON 272030Z 2721/2818 23010G18KT P6SM BKN040
     FM272200 28010KT P6SM SCT050 SCT250
     FM280300 35006KT P6SM SCT250=



000
FTUS41 KOKX 272030 AAA
TAFSWF
TAF AMD
KSWF 272030Z 2721/2824 29010KT P6SM BKN050
     FM280000 32005KT P6SM FEW050 SCT250
     FM280400 VRB04KT P6SM FEW050 SCT250
     FM281500 32006KT P6SM SKC
     FM281800 28006KT P6SM SKC
      AMD NOT SKED=



000
FTUS41 KOKX 271805 AAA
TAFGON
TAF AMD
KGON 271805Z 2718/2818 23010G18KT P6SM SCT050 SCT250
     FM272200 28010KT P6SM SCT050 SCT250
     FM280300 35006KT P6SM SCT250=



000
FTUS41 KOKX 271741 CCA
TAFGON
TAF COR
KGON 271741Z 2718/2818 27010G18KT P6SM SCT050 SCT250
     FM272200 28010KT P6SM SCT050 SCT250
     FM280300 35006KT P6SM SCT250=



000
FTUS41 KOKX 271741 CCA
TAFGON
TAF COR
KGON 271741Z 2718/2818 27010G18KT P6SM SCT050 SCT250
     FM272200 28010KT P6SM SCT050 SCT250
     FM280300 35006KT P6SM SCT250=



000
FTUS41 KOKX 271739
TAFJFK
TAF
KJFK 271739Z 2718/2824 28010KT P6SM FEW050 BKN250
      TEMPO 2718/2722 22010KT
     FM280400 33007KT P6SM SCT250
     FM280700 36006KT P6SM SKC
     FM281800 20010KT P6SM SKC=



000
FTUS41 KOKX 271739
TAFLGA
TAF
KLGA 271739Z 2718/2818 31010KT P6SM FEW050 SCT250
     FM280000 32010KT P6SM SCT250
     FM280400 36008KT P6SM SCT250=



000
FTUS41 KOKX 271739
TAFTEB
TAF
KTEB 271739Z 2718/2818 30010KT P6SM SCT050 SCT250
     FM272200 32008KT P6SM FEW050 SCT250
     FM280400 34005KT P6SM SCT250=



000
FTUS41 KOKX 271739
TAFGON
TAF
KGON 271739Z 2718/2818 25010KT P6SM SCT050 SCT250
     FM272200 28010KT P6SM SCT050 SCT250
     FM280200 33006KT P6SM SCT250=



000
FTUS41 KOKX 271739
TAFBDR
TAF
KBDR 271739Z 2718/2818 22010KT P6SM SCT050 SCT250
     FM280000 30005KT P6SM SCT250
     FM280400 35005KT P6SM SCT250
     FM281500 10006KT P6SM SCT250=



000
FTUS41 KOKX 271739
TAFSWF
TAF
KSWF 271739Z 2718/2824 29010KT P6SM SCT050 SCT250
     FM280000 32005KT P6SM FEW050 SCT250
     FM280400 VRB04KT P6SM FEW050 SCT250
     FM281500 32006KT P6SM SKC
     FM281800 28006KT P6SM SKC
      AMD NOT SKED=



000
FTUS41 KOKX 271739
TAFEWR
TAF
KEWR 271739Z 2718/2824 29012G18KT P6SM SCT050 SCT250
     FM272300 30010KT P6SM FEW050 SCT250
     FM280400 35008KT P6SM SCT250
     FM281800 22006KT P6SM SKC=



000
FTUS41 KOKX 271739
TAFLGA
TAF
KLGA 271739Z 2718/2818 31010KT P6SM FEW050 SCT250
     FM280000 32010KT P6SM SCT250
     FM280400 36008KT P6SM SCT250=



000
FTUS41 KOKX 271739
TAFISP
TAF
KISP 271739Z 2718/2818 31010KT P6SM SCT050 SCT250
     FM272300 27006KT P6SM SCT250
     FM280400 35004KT P6SM SCT250=



000
FTUS41 KOKX 271739
TAFTEB
TAF
KTEB 271739Z 2718/2818 30010KT P6SM SCT050 SCT250
     FM272200 32008KT P6SM FEW050 SCT250
     FM280400 34005KT P6SM SCT250=



000
FTUS41 KOKX 271739
TAFGON
TAF
KGON 271739Z 2718/2818 25010KT P6SM SCT050 SCT250
     FM272200 28010KT P6SM SCT050 SCT250
     FM280200 33006KT P6SM SCT250=



000
FTUS41 KOKX 271739
TAFSWF
TAF
KSWF 271739Z 2718/2824 29010KT P6SM SCT050 SCT250
     FM280000 32005KT P6SM FEW050 SCT250
     FM280400 VRB04KT P6SM FEW050 SCT250
     FM281500 32006KT P6SM SKC
     FM281800 28006KT P6SM SKC
      AMD NOT SKED=



000
FTUS41 KOKX 271739
TAFBDR
TAF
KBDR 271739Z 2718/2818 22010KT P6SM SCT050 SCT250
     FM280000 30005KT P6SM SCT250
     FM280400 35005KT P6SM SCT250
     FM281500 10006KT P6SM SCT250=



000
FTUS41 KOKX 271739
TAFEWR
TAF
KEWR 271739Z 2718/2824 29012G18KT P6SM SCT050 SCT250
     FM272300 30010KT P6SM FEW050 SCT250
     FM280400 35008KT P6SM SCT250
     FM281800 22006KT P6SM SKC=



000
FTUS41 KOKX 271739
TAFJFK
TAF
KJFK 271739Z 2718/2824 28010KT P6SM FEW050 BKN250
      TEMPO 2718/2722 22010KT
     FM280400 33007KT P6SM SCT250
     FM280700 36006KT P6SM SKC
     FM281800 20010KT P6SM SKC=



000
FTUS41 KOKX 271739
TAFISP
TAF
KISP 271739Z 2718/2818 31010KT P6SM SCT050 SCT250
     FM272300 27006KT P6SM SCT250
     FM280400 35004KT P6SM SCT250=



000
FTUS41 KOKX 271432 AAA
TAFGON
TAF AMD
KGON 271432Z 2715/2812 33010KT P6SM FEW050 SCT250
     FM271600 25010KT P6SM SCT050 SCT250
     FM272200 28010KT P6SM SCT050 SCT250
     FM280200 33006KT P6SM SCT250=



000
FTUS41 KOKX 271432 AAA
TAFJFK
TAF AMD
KJFK 271432Z 2715/2818 33010KT P6SM FEW050 SCT250
     FM271700 27010G16KT P6SM SCT050 SCT250
      TEMPO 2718/2722 24010KT
     FM280000 26009KT P6SM FEW050 SCT250
     FM280300 32007KT P6SM SCT250
     FM280700 35006KT P6SM SKC=



000
FTUS41 KOKX 271432 AAA
TAFEWR
TAF AMD
KEWR 271432Z 2715/2818 33007KT P6SM FEW050 SCT250
     FM271700 29012G18KT P6SM SCT050 SCT250
     FM272300 30010KT P6SM FEW050 SCT250
     FM280300 32008KT P6SM SCT250
     FM280700 35006KT P6SM SKC=



000
FTUS41 KOKX 271432 AAA
TAFTEB
TAF AMD
KTEB 271432Z 2715/2812 32008KT P6SM FEW050 SCT250
     FM271700 30010G16KT P6SM SCT050 SCT250
     FM272200 32008KT P6SM FEW050 SCT250
     FM280300 33005KT P6SM SCT250=



000
FTUS41 KOKX 271432 AAA
TAFJFK
TAF AMD
KJFK 271432Z 2715/2818 33010KT P6SM FEW050 SCT250
     FM271700 27010G16KT P6SM SCT050 SCT250
      TEMPO 2718/2722 24010KT
     FM280000 26009KT P6SM FEW050 SCT250
     FM280300 32007KT P6SM SCT250
     FM280700 35006KT P6SM SKC=



000
FTUS41 KOKX 271432 AAA
TAFTEB
TAF AMD
KTEB 271432Z 2715/2812 32008KT P6SM FEW050 SCT250
     FM271700 30010G16KT P6SM SCT050 SCT250
     FM272200 32008KT P6SM FEW050 SCT250
     FM280300 33005KT P6SM SCT250=



000
FTUS41 KOKX 271432 AAA
TAFISP
TAF AMD
KISP 271432Z 2715/2812 32010KT P6SM FEW050 SCT250
     FM271700 27010G16KT P6SM SCT050 SCT250
     FM272300 27006KT P6SM SCT250
     FM280300 35004KT P6SM SCT250=



000
FTUS41 KOKX 271432 AAA
TAFLGA
TAF AMD
KLGA 271432Z 2715/2812 33010KT P6SM FEW050 SCT250
     FM271700 31012G18KT P6SM SCT050 SCT250
     FM280000 32010KT P6SM SCT250
     FM280300 34007KT P6SM SCT250=



000
FTUS41 KOKX 271432 AAA
TAFLGA
TAF AMD
KLGA 271432Z 2715/2812 33010KT P6SM FEW050 SCT250
     FM271700 31012G18KT P6SM SCT050 SCT250
     FM280000 32010KT P6SM SCT250
     FM280300 34007KT P6SM SCT250=



000
FTUS41 KOKX 271432 AAA
TAFISP
TAF AMD
KISP 271432Z 2715/2812 32010KT P6SM FEW050 SCT250
     FM271700 27010G16KT P6SM SCT050 SCT250
     FM272300 27006KT P6SM SCT250
     FM280300 35004KT P6SM SCT250=



000
FTUS41 KOKX 271432 AAA
TAFBDR
TAF AMD
KBDR 271432Z 2715/2812 31008KT P6SM FEW050 SCT250
     FM271700 28010G16KT P6SM SCT050 SCT250
     FM272200 30007KT P6SM SCT250
     FM280200 34005KT P6SM SCT250=



000
FTUS41 KOKX 271432 AAA
TAFBDR
TAF AMD
KBDR 271432Z 2715/2812 31008KT P6SM FEW050 SCT250
     FM271700 28010G16KT P6SM SCT050 SCT250
     FM272200 30007KT P6SM SCT250
     FM280200 34005KT P6SM SCT250=



000
FTUS41 KOKX 271432 AAA
TAFSWF
TAF AMD
KSWF 271432Z 2715/2818 29008KT P6SM FEW050 SCT250
     FM271700 29010G16KT P6SM SCT050 SCT250
     FM280000 VRB05KT P6SM FEW050 SCT250
      AMD NOT SKED=



000
FTUS41 KOKX 271432 AAA
TAFSWF
TAF AMD
KSWF 271432Z 2715/2818 29008KT P6SM FEW050 SCT250
     FM271700 29010G16KT P6SM SCT050 SCT250
     FM280000 VRB05KT P6SM FEW050 SCT250
      AMD NOT SKED=



000
FTUS41 KOKX 271432 AAA
TAFGON
TAF AMD
KGON 271432Z 2715/2812 33010KT P6SM FEW050 SCT250
     FM271600 25010KT P6SM SCT050 SCT250
     FM272200 28010KT P6SM SCT050 SCT250
     FM280200 33006KT P6SM SCT250=



000
FTUS41 KOKX 271432 AAA
TAFEWR
TAF AMD
KEWR 271432Z 2715/2818 33007KT P6SM FEW050 SCT250
     FM271700 29012G18KT P6SM SCT050 SCT250
     FM272300 30010KT P6SM FEW050 SCT250
     FM280300 32008KT P6SM SCT250
     FM280700 35006KT P6SM SKC=



000
FTUS41 KOKX 271133
TAFSWF
TAF
KSWF 271133Z 2712/2818 32003KT P6SM SCT250
     FM271400 30008KT P6SM FEW050 SCT250
     FM271700 29010G16KT P6SM SCT050 SCT250
     FM280000 VRB05KT P6SM FEW050 SCT250
      AMD NOT SKED=



000
FTUS41 KOKX 271133
TAFTEB
TAF
KTEB 271133Z 2712/2812 32004KT P6SM SCT250
     FM271500 31008KT P6SM SCT250
     FM271700 30010G16KT P6SM SCT050 SCT250
     FM272200 32008KT P6SM FEW050 SCT250
     FM280300 33005KT P6SM SCT250=



000
FTUS41 KOKX 271133
TAFJFK
TAF
KJFK 271133Z 2712/2818 33008KT P6SM SCT250
     FM271700 27010G16KT P6SM SCT050 SCT250
      TEMPO 2718/2722 24010KT
     FM280000 26009KT P6SM FEW050 SCT250
     FM280300 32007KT P6SM SCT250
     FM280700 35006KT P6SM SKC=



000
FTUS41 KOKX 271133
TAFGON
TAF
KGON 271133Z 2712/2812 33005KT P6SM SCT250
     FM271600 25010KT P6SM SCT050 SCT250
     FM272200 28010KT P6SM SCT050 SCT250
     FM280200 33006KT P6SM SCT250=



000
FTUS41 KOKX 271133
TAFBDR
TAF
KBDR 271133Z 2712/2812 33005KT P6SM SCT250
     FM271500 29008KT P6SM SCT250
     FM271700 27010G16KT P6SM SCT050 SCT250
     FM272200 30007KT P6SM SCT250
     FM280200 34005KT P6SM SCT250=



000
FTUS41 KOKX 271133
TAFEWR
TAF
KEWR 271133Z 2712/2818 32007KT P6SM SCT250
     FM271700 29012G18KT P6SM SCT050 SCT250
     FM272300 30010KT P6SM FEW050 SCT250
     FM280300 32008KT P6SM SCT250
     FM280700 35006KT P6SM SKC=



000
FTUS41 KOKX 271133
TAFLGA
TAF
KLGA 271133Z 2712/2812 33008KT P6SM SCT250
     FM271700 31012G18KT P6SM SCT050 SCT250
     FM280000 32010KT P6SM SCT250
     FM280300 34007KT P6SM SCT250=



000
FTUS41 KOKX 271133
TAFISP
TAF
KISP 271133Z 2712/2812 32005KT P6SM SCT250
     FM271300 32008KT P6SM FEW050 SCT250
     FM271700 27010G16KT P6SM SCT050 SCT250
     FM272300 27006KT P6SM SCT250
     FM280300 35004KT P6SM SCT250=



000
FTUS41 KOKX 271133
TAFJFK
TAF
KJFK 271133Z 2712/2818 33008KT P6SM SCT250
     FM271700 27010G16KT P6SM SCT050 SCT250
      TEMPO 2718/2722 24010KT
     FM280000 26009KT P6SM FEW050 SCT250
     FM280300 32007KT P6SM SCT250
     FM280700 35006KT P6SM SKC=



000
FTUS41 KOKX 271133
TAFEWR
TAF
KEWR 271133Z 2712/2818 32007KT P6SM SCT250
     FM271700 29012G18KT P6SM SCT050 SCT250
     FM272300 30010KT P6SM FEW050 SCT250
     FM280300 32008KT P6SM SCT250
     FM280700 35006KT P6SM SKC=



000
FTUS41 KOKX 271133
TAFBDR
TAF
KBDR 271133Z 2712/2812 33005KT P6SM SCT250
     FM271500 29008KT P6SM SCT250
     FM271700 27010G16KT P6SM SCT050 SCT250
     FM272200 30007KT P6SM SCT250
     FM280200 34005KT P6SM SCT250=



000
FTUS41 KOKX 271133
TAFTEB
TAF
KTEB 271133Z 2712/2812 32004KT P6SM SCT250
     FM271500 31008KT P6SM SCT250
     FM271700 30010G16KT P6SM SCT050 SCT250
     FM272200 32008KT P6SM FEW050 SCT250
     FM280300 33005KT P6SM SCT250=



000
FTUS41 KOKX 271133
TAFSWF
TAF
KSWF 271133Z 2712/2818 32003KT P6SM SCT250
     FM271400 30008KT P6SM FEW050 SCT250
     FM271700 29010G16KT P6SM SCT050 SCT250
     FM280000 VRB05KT P6SM FEW050 SCT250
      AMD NOT SKED=



000
FTUS41 KOKX 271133
TAFLGA
TAF
KLGA 271133Z 2712/2812 33008KT P6SM SCT250
     FM271700 31012G18KT P6SM SCT050 SCT250
     FM280000 32010KT P6SM SCT250
     FM280300 34007KT P6SM SCT250=



000
FTUS41 KOKX 271133
TAFGON
TAF
KGON 271133Z 2712/2812 33005KT P6SM SCT250
     FM271600 25010KT P6SM SCT050 SCT250
     FM272200 28010KT P6SM SCT050 SCT250
     FM280200 33006KT P6SM SCT250=



000
FTUS41 KOKX 271133
TAFISP
TAF
KISP 271133Z 2712/2812 32005KT P6SM SCT250
     FM271300 32008KT P6SM FEW050 SCT250
     FM271700 27010G16KT P6SM SCT050 SCT250
     FM272300 27006KT P6SM SCT250
     FM280300 35004KT P6SM SCT250=



000
FTUS41 KOKX 270830 AAA
TAFBDR
TAF AMD
KBDR 270830Z 2709/2806 33005KT P6SM SCT250
     FM271500 29008KT P6SM SCT250
     FM271700 27010G16KT P6SM SCT050 SCT250
     FM272200 30007KT P6SM SCT250
     FM280200 34005KT P6SM SCT250=



000
FTUS41 KOKX 270830 AAA
TAFGON
TAF AMD
KGON 270830Z 2709/2806 33005KT P6SM SCT250
     FM271600 25010KT P6SM SCT050 SCT250
     FM272200 28010KT P6SM SCT050 SCT250
     FM280200 33006KT P6SM SCT250=



000
FTUS41 KOKX 270830 AAA
TAFISP
TAF AMD
KISP 270830Z 2709/2806 32005KT P6SM SCT250
     FM271300 32008KT P6SM FEW050 SCT250
     FM271700 27010G16KT P6SM SCT050 SCT250
     FM272300 27006KT P6SM SCT250
     FM280300 35004KT P6SM SCT250=



000
FTUS41 KOKX 270830 AAA
TAFTEB
TAF AMD
KTEB 270830Z 2709/2806 32004KT P6SM SCT250
     FM271500 31008KT P6SM SCT250
     FM271700 30010G16KT P6SM SCT050 SCT250
     FM272200 32008KT P6SM FEW050 SCT250
     FM280300 33005KT P6SM SCT250=



000
FTUS41 KOKX 270830 AAA
TAFJFK
TAF AMD
KJFK 270830Z 2709/2812 33008KT P6SM SCT250
     FM271700 27010G16KT P6SM SCT050 SCT250
      TEMPO 2718/2722 24010KT
     FM280000 26009KT P6SM FEW050 SCT250
     FM280300 32007KT P6SM SCT250=



000
FTUS41 KOKX 270830 AAA
TAFEWR
TAF AMD
KEWR 270830Z 2709/2812 32007KT P6SM SCT250
     FM271700 29012G18KT P6SM SCT050 SCT250
     FM272300 30010KT P6SM FEW050 SCT250
     FM280300 32008KT P6SM SCT250=



000
FTUS41 KOKX 270830 AAA
TAFLGA
TAF AMD
KLGA 270830Z 2709/2806 33008KT P6SM SCT250
     FM271700 31012G18KT P6SM SCT050 SCT250
     FM280000 32010KT P6SM SCT250
     FM280300 34007KT P6SM SCT250=



000
FTUS41 KOKX 270830 AAA
TAFSWF
TAF AMD
KSWF 270830Z 2709/2812 32003KT P6SM SCT250
     FM271400 30008KT P6SM FEW050 SCT250
     FM271700 29010G16KT P6SM SCT050 SCT250
     FM280000 32005KT P6SM FEW050 SCT250
      AMD NOT SKED=



000
FTUS41 KOKX 270521
TAFEWR
TAF
KEWR 270521Z 2706/2812 32007KT P6SM SCT250
     FM271700 29012G18KT P6SM SCT050 SCT250
     FM272300 30010KT P6SM FEW050 SCT250
     FM280300 32008KT P6SM SCT250=



000
FTUS41 KOKX 270521
TAFJFK
TAF
KJFK 270521Z 2706/2812 33008KT P6SM SCT250
     FM271700 27010G16KT P6SM SCT050 SCT250
      TEMPO 2718/2722 24010KT
     FM280000 26009KT P6SM FEW050 SCT250
     FM280300 32007KT P6SM SCT250=



000
FTUS41 KOKX 270521
TAFBDR
TAF
KBDR 270521Z 2706/2806 33005KT P6SM SCT250
     FM271500 29008KT P6SM SCT250
     FM271700 27010G16KT P6SM SCT050 SCT250
     FM272200 30007KT P6SM SCT250
     FM280200 34005KT P6SM SCT250=



000
FTUS41 KOKX 270521
TAFGON
TAF
KGON 270521Z 2706/2806 33005KT P6SM SCT250
     FM271600 25010KT P6SM SCT050 SCT250
     FM272200 28010KT P6SM SCT050 SCT250
     FM280200 33006KT P6SM SCT250=



000
FTUS41 KOKX 270521
TAFISP
TAF
KISP 270521Z 2706/2806 32005KT P6SM SCT250
     FM271300 32008KT P6SM FEW050 SCT250
     FM271700 27010G16KT P6SM SCT050 SCT250
     FM272300 27006KT P6SM SCT250
     FM280300 35004KT P6SM SCT250=



000
FTUS41 KOKX 270521
TAFTEB
TAF
KTEB 270521Z 2706/2806 32004KT P6SM SCT250
     FM271500 31008KT P6SM SCT250
     FM271700 30010G16KT P6SM SCT050 SCT250
     FM272200 32008KT P6SM FEW050 SCT250
     FM280300 33005KT P6SM SCT250=



000
FTUS41 KOKX 270521
TAFLGA
TAF
KLGA 270521Z 2706/2806 33008KT P6SM SCT250
     FM271700 31012G18KT P6SM SCT050 SCT250
     FM280000 32010KT P6SM SCT250
     FM280300 34007KT P6SM SCT250=



000
FTUS41 KOKX 270521
TAFSWF
TAF
KSWF 270521Z 2706/2812 32003KT P6SM SCT250
     FM271400 30008KT P6SM FEW050 SCT250
     FM271700 29010G16KT P6SM SCT050 SCT250
     FM280000 32005KT P6SM FEW050 SCT250
      AMD NOT SKED=



000
FTUS41 KOKX 270521
TAFBDR
TAF
KBDR 270521Z 2706/2806 33005KT P6SM SCT250
     FM271500 29008KT P6SM SCT250
     FM271700 27010G16KT P6SM SCT050 SCT250
     FM272200 30007KT P6SM SCT250
     FM280200 34005KT P6SM SCT250=



000
FTUS41 KOKX 270521
TAFTEB
TAF
KTEB 270521Z 2706/2806 32004KT P6SM SCT250
     FM271500 31008KT P6SM SCT250
     FM271700 30010G16KT P6SM SCT050 SCT250
     FM272200 32008KT P6SM FEW050 SCT250
     FM280300 33005KT P6SM SCT250=



000
FTUS41 KOKX 270521
TAFLGA
TAF
KLGA 270521Z 2706/2806 33008KT P6SM SCT250
     FM271700 31012G18KT P6SM SCT050 SCT250
     FM280000 32010KT P6SM SCT250
     FM280300 34007KT P6SM SCT250=



000
FTUS41 KOKX 270521
TAFGON
TAF
KGON 270521Z 2706/2806 33005KT P6SM SCT250
     FM271600 25010KT P6SM SCT050 SCT250
     FM272200 28010KT P6SM SCT050 SCT250
     FM280200 33006KT P6SM SCT250=



000
FTUS41 KOKX 270521
TAFJFK
TAF
KJFK 270521Z 2706/2812 33008KT P6SM SCT250
     FM271700 27010G16KT P6SM SCT050 SCT250
      TEMPO 2718/2722 24010KT
     FM280000 26009KT P6SM FEW050 SCT250
     FM280300 32007KT P6SM SCT250=



000
FTUS41 KOKX 270521
TAFISP
TAF
KISP 270521Z 2706/2806 32005KT P6SM SCT250
     FM271300 32008KT P6SM FEW050 SCT250
     FM271700 27010G16KT P6SM SCT050 SCT250
     FM272300 27006KT P6SM SCT250
     FM280300 35004KT P6SM SCT250=



000
FTUS41 KOKX 270521
TAFEWR
TAF
KEWR 270521Z 2706/2812 32007KT P6SM SCT250
     FM271700 29012G18KT P6SM SCT050 SCT250
     FM272300 30010KT P6SM FEW050 SCT250
     FM280300 32008KT P6SM SCT250=



000
FTUS41 KOKX 270521
TAFSWF
TAF
KSWF 270521Z 2706/2812 32003KT P6SM SCT250
     FM271400 30008KT P6SM FEW050 SCT250
     FM271700 29010G16KT P6SM SCT050 SCT250
     FM280000 32005KT P6SM FEW050 SCT250
      AMD NOT SKED=



000
FTUS41 KOKX 270236 AAA
TAFISP
TAF AMD
KISP 270236Z 2703/2724 32005KT P6SM SCT250
     FM271400 32008KT P6SM FEW050 SCT250
     FM271700 27010G16KT P6SM SCT050 SCT250=



000
FTUS41 KOKX 270236 AAA
TAFLGA
TAF AMD
KLGA 270236Z 2703/2724 33010KT P6SM SCT250
     FM271700 31012G18KT P6SM SCT050 SCT250=



000
FTUS41 KOKX 270236 AAA
TAFJFK
TAF AMD
KJFK 270236Z 2703/2806 32010KT P6SM SCT250
     FM270800 33008KT P6SM SCT250
     FM271700 27010G16KT P6SM SCT050 SCT250
      TEMPO 2717/2720 24010KT
     FM280000 26009KT P6SM FEW050 SCT250=



000
FTUS41 KOKX 270236 AAA
TAFGON
TAF AMD
KGON 270236Z 2703/2724 33005KT P6SM SCT250
     FM271600 24010KT P6SM SCT050 SCT250
     FM272200 28010KT P6SM SCT050 SCT250=



000
FTUS41 KOKX 270236 AAA
TAFBDR
TAF AMD
KBDR 270236Z 2703/2724 33005KT P6SM SCT250
     FM271700 27010G16KT P6SM SCT050 SCT250=



000
FTUS41 KOKX 270236 AAA
TAFTEB
TAF AMD
KTEB 270236Z 2703/2724 32004KT P6SM SCT250
     FM271700 30010G16KT P6SM SCT050 SCT250=



000
FTUS41 KOKX 270236 AAA
TAFSWF
TAF AMD
KSWF 270236Z 2703/2806 32003KT P6SM SCT250
     FM271400 30008KT P6SM FEW050 SCT250
     FM271700 29010G16KT P6SM SCT050 SCT250
     FM280000 29005KT P6SM FEW050 SCT250
      AMD NOT SKED=



000
FTUS41 KOKX 270236 AAA
TAFEWR
TAF AMD
KEWR 270236Z 2703/2806 32008KT P6SM SCT250
     FM270800 32007KT P6SM SCT250
     FM271700 29012G18KT P6SM SCT050 SCT250=



000
FTUS41 KOKX 270236 AAA
TAFSWF
TAF AMD
KSWF 270236Z 2703/2806 32003KT P6SM SCT250
     FM271400 30008KT P6SM FEW050 SCT250
     FM271700 29010G16KT P6SM SCT050 SCT250
     FM280000 29005KT P6SM FEW050 SCT250
      AMD NOT SKED=



000
FTUS41 KOKX 270236 AAA
TAFISP
TAF AMD
KISP 270236Z 2703/2724 32005KT P6SM SCT250
     FM271400 32008KT P6SM FEW050 SCT250
     FM271700 27010G16KT P6SM SCT050 SCT250=



000
FTUS41 KOKX 270236 AAA
TAFEWR
TAF AMD
KEWR 270236Z 2703/2806 32008KT P6SM SCT250
     FM270800 32007KT P6SM SCT250
     FM271700 29012G18KT P6SM SCT050 SCT250=



000
FTUS41 KOKX 270236 AAA
TAFBDR
TAF AMD
KBDR 270236Z 2703/2724 33005KT P6SM SCT250
     FM271700 27010G16KT P6SM SCT050 SCT250=



000
FTUS41 KOKX 270236 AAA
TAFJFK
TAF AMD
KJFK 270236Z 2703/2806 32010KT P6SM SCT250
     FM270800 33008KT P6SM SCT250
     FM271700 27010G16KT P6SM SCT050 SCT250
      TEMPO 2717/2720 24010KT
     FM280000 26009KT P6SM FEW050 SCT250=



000
FTUS41 KOKX 270236 AAA
TAFTEB
TAF AMD
KTEB 270236Z 2703/2724 32004KT P6SM SCT250
     FM271700 30010G16KT P6SM SCT050 SCT250=



000
FTUS41 KOKX 270236 AAA
TAFGON
TAF AMD
KGON 270236Z 2703/2724 33005KT P6SM SCT250
     FM271600 24010KT P6SM SCT050 SCT250
     FM272200 28010KT P6SM SCT050 SCT250=



000
FTUS41 KOKX 270236 AAA
TAFLGA
TAF AMD
KLGA 270236Z 2703/2724 33010KT P6SM SCT250
     FM271700 31012G18KT P6SM SCT050 SCT250=



    US Dept of Commerce
    National Oceanic and Atmospheric Administration
    National Weather Service
    1325 East West Highway
    Silver Spring, MD 20910
    Page Author: NWS Internet Services Team
Disclaimer
Information Quality
Credits
Glossary
Privacy Policy
Freedom of Information Act (FOIA)
About Us
Career Opportunities